sensor_id;sensor_type;location;lat;lon;timestamp;P1;durP1;ratioP1;P2;durP2;ratioP2
19599;SDS011;9947;57.722;12.012;2023-02-28T00:01:20;11.87;;;5.97;;
19599;SDS011;9947;57.722;12.012;2023-02-28T00:03:49;17.40;;;6.53;;
19599;SDS011;9947;57.722;12.012;2023-02-28T00:06:16;17.37;;;6.93;;
19599;SDS011;9947;57.722;12.012;2023-02-28T00:08:50;10.60;;;6.40;;
19599;SDS011;9947;57.722;12.012;2023-02-28T00:11:17;18.10;;;6.83;;
19599;SDS011;9947;57.722;12.012;2023-02-28T00:13:46;17.73;;;6.67;;
19599;SDS011;9947;57.722;12.012;2023-02-28T00:16:15;16.80;;;6.33;;
19599;SDS011;9947;57.722;12.012;2023-02-28T00:18:43;17.63;;;6.63;;
19599;SDS011;9947;57.722;12.012;2023-02-28T00:21:14;18.77;;;7.47;;
19599;SDS011;9947;57.722;12.012;2023-02-28T00:23:41;13.73;;;7.53;;
19599;SDS011;9947;57.722;12.012;2023-02-28T00:26:15;13.97;;;6.83;;
19599;SDS011;9947;57.722;12.012;2023-02-28T00:28:42;13.30;;;6.40;;
19599;SDS011;9947;57.722;12.012;2023-02-28T00:31:09;10.07;;;5.97;;
19599;SDS011;9947;57.722;12.012;2023-02-28T00:33:36;13.20;;;6.87;;
19599;SDS011;9947;57.722;12.012;2023-02-28T00:36:03;10.13;;;5.63;;
19599;SDS011;9947;57.722;12.012;2023-02-28T00:38:33;10.43;;;5.63;;
19599;SDS011;9947;57.722;12.012;2023-02-28T00:41:00;11.07;;;6.30;;
19599;SDS011;9947;57.722;12.012;2023-02-28T00:43:30;15.60;;;6.33;;
19599;SDS011;9947;57.722;12.012;2023-02-28T00:46:00;15.10;;;6.70;;
19599;SDS011;9947;57.722;12.012;2023-02-28T00:48:34;12.30;;;5.97;;
19599;SDS011;9947;57.722;12.012;2023-02-28T00:51:01;9.70;;;6.00;;
19599;SDS011;9947;57.722;12.012;2023-02-28T00:53:28;13.60;;;6.47;;
19599;SDS011;9947;57.722;12.012;2023-02-28T00:55:58;13.40;;;6.47;;
19599;SDS011;9947;57.722;12.012;2023-02-28T00:58:25;13.43;;;5.73;;
19599;SDS011;9947;57.722;12.012;2023-02-28T01:00:53;12.60;;;6.10;;
19599;SDS011;9947;57.722;12.012;2023-02-28T01:03:20;10.40;;;6.23;;
19599;SDS011;9947;57.722;12.012;2023-02-28T01:05:48;10.87;;;6.10;;
19599;SDS011;9947;57.722;12.012;2023-02-28T01:08:14;12.00;;;5.83;;
19599;SDS011;9947;57.722;12.012;2023-02-28T01:10:51;19.50;;;5.97;;
19599;SDS011;9947;57.722;12.012;2023-02-28T01:13:20;13.97;;;5.70;;
19599;SDS011;9947;57.722;12.012;2023-02-28T01:15:48;15.60;;;7.03;;
19599;SDS011;9947;57.722;12.012;2023-02-28T01:18:17;13.00;;;6.23;;
19599;SDS011;9947;57.722;12.012;2023-02-28T01:20:44;12.47;;;5.97;;
19599;SDS011;9947;57.722;12.012;2023-02-28T01:23:19;15.80;;;6.57;;
19599;SDS011;9947;57.722;12.012;2023-02-28T01:25:54;20.87;;;6.47;;
19599;SDS011;9947;57.722;12.012;2023-02-28T01:28:22;13.73;;;6.43;;
19599;SDS011;9947;57.722;12.012;2023-02-28T01:30:59;21.60;;;6.33;;
19599;SDS011;9947;57.722;12.012;2023-02-28T01:33:26;14.40;;;6.37;;
19599;SDS011;9947;57.722;12.012;2023-02-28T01:35:57;9.73;;;5.73;;
19599;SDS011;9947;57.722;12.012;2023-02-28T01:38:24;14.23;;;6.37;;
19599;SDS011;9947;57.722;12.012;2023-02-28T01:40:51;10.63;;;5.93;;
19599;SDS011;9947;57.722;12.012;2023-02-28T01:43:23;14.40;;;6.40;;
19599;SDS011;9947;57.722;12.012;2023-02-28T01:45:52;12.83;;;6.40;;
19599;SDS011;9947;57.722;12.012;2023-02-28T01:48:23;9.57;;;5.90;;
19599;SDS011;9947;57.722;12.012;2023-02-28T01:50:54;11.90;;;5.87;;
19599;SDS011;9947;57.722;12.012;2023-02-28T01:53:26;12.07;;;6.27;;
19599;SDS011;9947;57.722;12.012;2023-02-28T01:55:58;12.80;;;5.73;;
19599;SDS011;9947;57.722;12.012;2023-02-28T01:58:27;9.77;;;5.80;;
19599;SDS011;9947;57.722;12.012;2023-02-28T02:01:00;12.23;;;6.00;;
19599;SDS011;9947;57.722;12.012;2023-02-28T02:03:30;13.93;;;6.37;;
19599;SDS011;9947;57.722;12.012;2023-02-28T02:05:58;12.30;;;5.67;;
19599;SDS011;9947;57.722;12.012;2023-02-28T02:08:26;10.80;;;6.63;;
19599;SDS011;9947;57.722;12.012;2023-02-28T02:10:56;12.10;;;6.07;;
19599;SDS011;9947;57.722;12.012;2023-02-28T02:13:41;14.40;;;5.93;;
19599;SDS011;9947;57.722;12.012;2023-02-28T02:16:33;10.77;;;5.53;;
19599;SDS011;9947;57.722;12.012;2023-02-28T02:19:11;12.67;;;4.90;;
19599;SDS011;9947;57.722;12.012;2023-02-28T02:22:01;11.07;;;5.97;;
19599;SDS011;9947;57.722;12.012;2023-02-28T02:24:49;9.27;;;5.37;;
19599;SDS011;9947;57.722;12.012;2023-02-28T02:27:50;7.90;;;5.77;;
19599;SDS011;9947;57.722;12.012;2023-02-28T02:33:49;15.57;;;6.60;;
19599;SDS011;9947;57.722;12.012;2023-02-28T02:36:40;12.73;;;6.30;;
19599;SDS011;9947;57.722;12.012;2023-02-28T02:39:15;9.90;;;6.00;;
19599;SDS011;9947;57.722;12.012;2023-02-28T02:41:54;11.03;;;5.50;;
19599;SDS011;9947;57.722;12.012;2023-02-28T02:44:28;9.43;;;5.27;;
19599;SDS011;9947;57.722;12.012;2023-02-28T02:47:05;9.07;;;4.80;;
19599;SDS011;9947;57.722;12.012;2023-02-28T02:49:37;8.77;;;5.20;;
19599;SDS011;9947;57.722;12.012;2023-02-28T02:52:09;9.73;;;5.13;;
19599;SDS011;9947;57.722;12.012;2023-02-28T02:54:41;10.20;;;5.53;;
19599;SDS011;9947;57.722;12.012;2023-02-28T02:57:11;7.30;;;4.90;;
19599;SDS011;9947;57.722;12.012;2023-02-28T02:59:42;10.30;;;5.97;;
19599;SDS011;9947;57.722;12.012;2023-02-28T03:02:10;17.17;;;5.53;;
19599;SDS011;9947;57.722;12.012;2023-02-28T03:04:42;10.03;;;5.87;;
19599;SDS011;9947;57.722;12.012;2023-02-28T03:07:18;11.23;;;5.33;;
19599;SDS011;9947;57.722;12.012;2023-02-28T03:09:50;11.03;;;5.73;;
19599;SDS011;9947;57.722;12.012;2023-02-28T03:12:18;10.37;;;5.67;;
19599;SDS011;9947;57.722;12.012;2023-02-28T03:14:50;15.07;;;5.77;;
19599;SDS011;9947;57.722;12.012;2023-02-28T03:20:17;9.40;;;5.57;;
19599;SDS011;9947;57.722;12.012;2023-02-28T03:23:03;14.83;;;6.30;;
19599;SDS011;9947;57.722;12.012;2023-02-28T03:25:38;12.67;;;6.93;;
19599;SDS011;9947;57.722;12.012;2023-02-28T03:28:12;12.23;;;5.40;;
19599;SDS011;9947;57.722;12.012;2023-02-28T03:30:44;9.30;;;4.70;;
19599;SDS011;9947;57.722;12.012;2023-02-28T03:33:19;6.60;;;5.00;;
19599;SDS011;9947;57.722;12.012;2023-02-28T03:35:51;10.13;;;4.93;;
19599;SDS011;9947;57.722;12.012;2023-02-28T03:38:23;9.07;;;5.00;;
19599;SDS011;9947;57.722;12.012;2023-02-28T03:41:02;11.07;;;6.00;;
19599;SDS011;9947;57.722;12.012;2023-02-28T03:43:36;8.90;;;5.00;;
19599;SDS011;9947;57.722;12.012;2023-02-28T03:46:08;12.60;;;5.00;;
19599;SDS011;9947;57.722;12.012;2023-02-28T03:48:38;9.83;;;5.60;;
19599;SDS011;9947;57.722;12.012;2023-02-28T03:51:10;8.27;;;5.30;;
19599;SDS011;9947;57.722;12.012;2023-02-28T03:53:44;8.83;;;4.80;;
19599;SDS011;9947;57.722;12.012;2023-02-28T03:56:14;9.00;;;4.70;;
19599;SDS011;9947;57.722;12.012;2023-02-28T03:58:46;10.57;;;5.27;;
19599;SDS011;9947;57.722;12.012;2023-02-28T04:01:19;8.93;;;5.40;;
19599;SDS011;9947;57.722;12.012;2023-02-28T04:03:49;12.57;;;5.63;;
19599;SDS011;9947;57.722;12.012;2023-02-28T04:06:17;9.93;;;5.17;;
19599;SDS011;9947;57.722;12.012;2023-02-28T04:08:47;8.07;;;4.60;;
19599;SDS011;9947;57.722;12.012;2023-02-28T04:11:22;12.00;;;5.67;;
19599;SDS011;9947;57.722;12.012;2023-02-28T04:13:50;10.03;;;4.70;;
19599;SDS011;9947;57.722;12.012;2023-02-28T04:16:24;6.57;;;5.03;;
19599;SDS011;9947;57.722;12.012;2023-02-28T04:18:51;5.87;;;4.57;;
19599;SDS011;9947;57.722;12.012;2023-02-28T04:21:18;7.17;;;4.73;;
19599;SDS011;9947;57.722;12.012;2023-02-28T04:23:51;8.23;;;4.80;;
19599;SDS011;9947;57.722;12.012;2023-02-28T04:26:18;7.37;;;4.57;;
19599;SDS011;9947;57.722;12.012;2023-02-28T04:28:45;10.17;;;4.90;;
19599;SDS011;9947;57.722;12.012;2023-02-28T04:31:12;8.70;;;5.27;;
19599;SDS011;9947;57.722;12.012;2023-02-28T04:33:39;12.37;;;5.10;;
19599;SDS011;9947;57.722;12.012;2023-02-28T04:36:07;6.50;;;4.43;;
19599;SDS011;9947;57.722;12.012;2023-02-28T04:38:35;9.93;;;5.23;;
19599;SDS011;9947;57.722;12.012;2023-02-28T04:41:04;7.47;;;4.67;;
19599;SDS011;9947;57.722;12.012;2023-02-28T04:43:35;9.20;;;4.47;;
19599;SDS011;9947;57.722;12.012;2023-02-28T04:46:03;9.10;;;4.37;;
19599;SDS011;9947;57.722;12.012;2023-02-28T04:48:31;6.43;;;4.80;;
19599;SDS011;9947;57.722;12.012;2023-02-28T04:51:00;9.53;;;5.37;;
19599;SDS011;9947;57.722;12.012;2023-02-28T04:53:27;8.20;;;4.90;;
19599;SDS011;9947;57.722;12.012;2023-02-28T04:55:54;8.60;;;4.93;;
19599;SDS011;9947;57.722;12.012;2023-02-28T04:58:23;6.80;;;4.57;;
19599;SDS011;9947;57.722;12.012;2023-02-28T05:00:50;10.13;;;5.27;;
19599;SDS011;9947;57.722;12.012;2023-02-28T05:03:24;9.07;;;4.63;;
19599;SDS011;9947;57.722;12.012;2023-02-28T05:05:51;6.40;;;4.70;;
19599;SDS011;9947;57.722;12.012;2023-02-28T05:08:18;6.50;;;4.73;;
19599;SDS011;9947;57.722;12.012;2023-02-28T05:10:46;11.07;;;4.60;;
19599;SDS011;9947;57.722;12.012;2023-02-28T05:13:13;10.77;;;5.87;;
19599;SDS011;9947;57.722;12.012;2023-02-28T05:15:42;7.30;;;4.70;;
19599;SDS011;9947;57.722;12.012;2023-02-28T05:18:08;12.17;;;5.13;;
19599;SDS011;9947;57.722;12.012;2023-02-28T05:20:35;12.73;;;5.67;;
19599;SDS011;9947;57.722;12.012;2023-02-28T05:23:02;10.63;;;5.40;;
19599;SDS011;9947;57.722;12.012;2023-02-28T05:25:36;8.03;;;5.13;;
19599;SDS011;9947;57.722;12.012;2023-02-28T05:28:03;8.27;;;5.30;;
19599;SDS011;9947;57.722;12.012;2023-02-28T05:30:30;8.50;;;5.20;;
19599;SDS011;9947;57.722;12.012;2023-02-28T05:32:59;9.13;;;4.80;;
19599;SDS011;9947;57.722;12.012;2023-02-28T05:35:26;8.87;;;5.17;;
19599;SDS011;9947;57.722;12.012;2023-02-28T05:37:53;6.70;;;4.77;;
19599;SDS011;9947;57.722;12.012;2023-02-28T05:40:20;9.60;;;4.77;;
19599;SDS011;9947;57.722;12.012;2023-02-28T05:42:47;9.20;;;5.30;;
19599;SDS011;9947;57.722;12.012;2023-02-28T05:45:16;10.23;;;5.70;;
19599;SDS011;9947;57.722;12.012;2023-02-28T05:47:43;11.13;;;4.37;;
19599;SDS011;9947;57.722;12.012;2023-02-28T05:50:11;12.33;;;5.00;;
19599;SDS011;9947;57.722;12.012;2023-02-28T05:52:38;8.70;;;4.93;;
19599;SDS011;9947;57.722;12.012;2023-02-28T05:55:06;9.63;;;5.63;;
19599;SDS011;9947;57.722;12.012;2023-02-28T05:57:33;6.07;;;4.23;;
19599;SDS011;9947;57.722;12.012;2023-02-28T06:00:00;6.63;;;4.33;;
19599;SDS011;9947;57.722;12.012;2023-02-28T06:02:34;17.97;;;5.90;;
19599;SDS011;9947;57.722;12.012;2023-02-28T06:05:01;10.03;;;5.70;;
19599;SDS011;9947;57.722;12.012;2023-02-28T06:07:29;8.53;;;5.00;;
19599;SDS011;9947;57.722;12.012;2023-02-28T06:09:56;10.60;;;4.90;;
19599;SDS011;9947;57.722;12.012;2023-02-28T06:12:23;9.03;;;4.87;;
19599;SDS011;9947;57.722;12.012;2023-02-28T06:14:50;10.10;;;4.80;;
19599;SDS011;9947;57.722;12.012;2023-02-28T06:17:17;8.90;;;4.77;;
19599;SDS011;9947;57.722;12.012;2023-02-28T06:19:44;8.00;;;4.87;;
19599;SDS011;9947;57.722;12.012;2023-02-28T06:22:11;8.50;;;4.47;;
19599;SDS011;9947;57.722;12.012;2023-02-28T06:24:39;8.80;;;4.40;;
19599;SDS011;9947;57.722;12.012;2023-02-28T06:27:06;8.80;;;3.83;;
19599;SDS011;9947;57.722;12.012;2023-02-28T06:29:34;6.37;;;4.20;;
19599;SDS011;9947;57.722;12.012;2023-02-28T06:32:05;9.00;;;4.33;;
19599;SDS011;9947;57.722;12.012;2023-02-28T06:34:31;6.70;;;3.83;;
19599;SDS011;9947;57.722;12.012;2023-02-28T06:36:59;6.30;;;4.33;;
19599;SDS011;9947;57.722;12.012;2023-02-28T06:39:27;10.23;;;4.50;;
19599;SDS011;9947;57.722;12.012;2023-02-28T06:41:55;6.77;;;4.40;;
19599;SDS011;9947;57.722;12.012;2023-02-28T06:44:22;20.93;;;6.47;;
19599;SDS011;9947;57.722;12.012;2023-02-28T06:46:53;8.30;;;4.90;;
19599;SDS011;9947;57.722;12.012;2023-02-28T06:49:23;8.27;;;4.33;;
19599;SDS011;9947;57.722;12.012;2023-02-28T06:51:53;9.33;;;4.70;;
19599;SDS011;9947;57.722;12.012;2023-02-28T06:54:20;9.20;;;4.27;;
19599;SDS011;9947;57.722;12.012;2023-02-28T06:56:47;7.63;;;3.80;;
19599;SDS011;9947;57.722;12.012;2023-02-28T06:59:16;8.33;;;4.07;;
19599;SDS011;9947;57.722;12.012;2023-02-28T07:01:50;6.30;;;3.93;;
19599;SDS011;9947;57.722;12.012;2023-02-28T07:04:17;6.43;;;4.40;;
19599;SDS011;9947;57.722;12.012;2023-02-28T07:06:44;9.70;;;4.60;;
19599;SDS011;9947;57.722;12.012;2023-02-28T07:09:11;10.40;;;4.37;;
19599;SDS011;9947;57.722;12.012;2023-02-28T07:11:39;6.60;;;3.87;;
19599;SDS011;9947;57.722;12.012;2023-02-28T07:14:08;7.37;;;4.60;;
19599;SDS011;9947;57.722;12.012;2023-02-28T07:16:36;11.70;;;4.27;;
19599;SDS011;9947;57.722;12.012;2023-02-28T07:19:06;14.93;;;4.27;;
19599;SDS011;9947;57.722;12.012;2023-02-28T07:21:32;8.90;;;4.13;;
19599;SDS011;9947;57.722;12.012;2023-02-28T07:23:59;14.83;;;4.27;;
19599;SDS011;9947;57.722;12.012;2023-02-28T07:26:26;8.93;;;4.77;;
19599;SDS011;9947;57.722;12.012;2023-02-28T07:28:53;9.13;;;4.50;;
19599;SDS011;9947;57.722;12.012;2023-02-28T07:31:20;9.67;;;4.43;;
19599;SDS011;9947;57.722;12.012;2023-02-28T07:33:49;13.17;;;4.83;;
19599;SDS011;9947;57.722;12.012;2023-02-28T07:36:19;6.17;;;3.97;;
19599;SDS011;9947;57.722;12.012;2023-02-28T07:38:46;15.43;;;5.03;;
19599;SDS011;9947;57.722;12.012;2023-02-28T07:41:16;9.53;;;4.83;;
19599;SDS011;9947;57.722;12.012;2023-02-28T07:43:44;17.43;;;5.37;;
19599;SDS011;9947;57.722;12.012;2023-02-28T07:46:18;16.10;;;5.10;;
19599;SDS011;9947;57.722;12.012;2023-02-28T07:48:56;15.07;;;4.47;;
19599;SDS011;9947;57.722;12.012;2023-02-28T07:51:24;9.60;;;4.60;;
19599;SDS011;9947;57.722;12.012;2023-02-28T07:53:51;9.73;;;4.93;;
19599;SDS011;9947;57.722;12.012;2023-02-28T07:56:18;13.33;;;5.47;;
19599;SDS011;9947;57.722;12.012;2023-02-28T07:58:45;8.87;;;5.23;;
19599;SDS011;9947;57.722;12.012;2023-02-28T08:01:12;12.70;;;5.50;;
19599;SDS011;9947;57.722;12.012;2023-02-28T08:03:39;14.07;;;5.20;;
19599;SDS011;9947;57.722;12.012;2023-02-28T08:06:14;14.57;;;5.23;;
19599;SDS011;9947;57.722;12.012;2023-02-28T08:08:43;9.73;;;4.83;;
19599;SDS011;9947;57.722;12.012;2023-02-28T08:11:10;9.23;;;4.90;;
19599;SDS011;9947;57.722;12.012;2023-02-28T08:13:37;10.40;;;5.07;;
19599;SDS011;9947;57.722;12.012;2023-02-28T08:16:04;8.50;;;5.07;;
19599;SDS011;9947;57.722;12.012;2023-02-28T08:18:32;9.63;;;6.10;;
19599;SDS011;9947;57.722;12.012;2023-02-28T08:20:59;15.47;;;6.23;;
19599;SDS011;9947;57.722;12.012;2023-02-28T08:23:27;14.47;;;6.60;;
19599;SDS011;9947;57.722;12.012;2023-02-28T08:25:54;13.80;;;6.83;;
19599;SDS011;9947;57.722;12.012;2023-02-28T08:28:23;17.10;;;6.63;;
19599;SDS011;9947;57.722;12.012;2023-02-28T08:30:51;16.53;;;7.30;;
19599;SDS011;9947;57.722;12.012;2023-02-28T08:33:18;15.17;;;7.33;;
19599;SDS011;9947;57.722;12.012;2023-02-28T08:35:45;18.87;;;7.70;;
19599;SDS011;9947;57.722;12.012;2023-02-28T08:38:12;22.53;;;8.13;;
19599;SDS011;9947;57.722;12.012;2023-02-28T08:40:40;20.13;;;8.87;;
19599;SDS011;9947;57.722;12.012;2023-02-28T08:43:07;23.23;;;8.30;;
19599;SDS011;9947;57.722;12.012;2023-02-28T08:45:41;18.30;;;8.80;;
19599;SDS011;9947;57.722;12.012;2023-02-28T08:48:08;23.33;;;9.47;;
19599;SDS011;9947;57.722;12.012;2023-02-28T08:50:35;26.23;;;8.87;;
19599;SDS011;9947;57.722;12.012;2023-02-28T08:53:02;19.77;;;8.13;;
19599;SDS011;9947;57.722;12.012;2023-02-28T08:55:29;22.17;;;8.77;;
19599;SDS011;9947;57.722;12.012;2023-02-28T08:57:57;24.17;;;8.80;;
19599;SDS011;9947;57.722;12.012;2023-02-28T09:00:26;22.73;;;9.73;;
19599;SDS011;9947;57.722;12.012;2023-02-28T09:02:53;33.63;;;10.73;;
19599;SDS011;9947;57.722;12.012;2023-02-28T09:05:20;28.43;;;11.33;;
19599;SDS011;9947;57.722;12.012;2023-02-28T09:07:48;36.13;;;12.17;;
19599;SDS011;9947;57.722;12.012;2023-02-28T09:10:17;45.63;;;13.30;;
19599;SDS011;9947;57.722;12.012;2023-02-28T09:12:44;39.47;;;12.37;;
19599;SDS011;9947;57.722;12.012;2023-02-28T09:15:13;37.50;;;13.37;;
19599;SDS011;9947;57.722;12.012;2023-02-28T09:17:40;47.00;;;13.10;;
19599;SDS011;9947;57.722;12.012;2023-02-28T09:20:07;38.90;;;12.90;;
19599;SDS011;9947;57.722;12.012;2023-02-28T09:22:35;46.67;;;13.13;;
19599;SDS011;9947;57.722;12.012;2023-02-28T09:25:09;40.00;;;13.40;;
19599;SDS011;9947;57.722;12.012;2023-02-28T09:27:36;44.47;;;14.37;;
19599;SDS011;9947;57.722;12.012;2023-02-28T09:30:03;43.43;;;13.83;;
19599;SDS011;9947;57.722;12.012;2023-02-28T09:32:32;39.33;;;14.77;;
19599;SDS011;9947;57.722;12.012;2023-02-28T09:34:59;47.13;;;16.30;;
19599;SDS011;9947;57.722;12.012;2023-02-28T09:37:26;41.27;;;15.23;;
19599;SDS011;9947;57.722;12.012;2023-02-28T09:39:54;39.93;;;16.10;;
19599;SDS011;9947;57.722;12.012;2023-02-28T09:42:28;43.03;;;15.77;;
19599;SDS011;9947;57.722;12.012;2023-02-28T09:45:00;44.27;;;15.73;;
19599;SDS011;9947;57.722;12.012;2023-02-28T09:47:34;46.33;;;15.10;;
19599;SDS011;9947;57.722;12.012;2023-02-28T09:50:11;45.23;;;15.37;;
19599;SDS011;9947;57.722;12.012;2023-02-28T09:52:48;38.27;;;14.87;;
19599;SDS011;9947;57.722;12.012;2023-02-28T09:55:28;46.50;;;15.87;;
19599;SDS011;9947;57.722;12.012;2023-02-28T09:57:59;43.87;;;15.40;;
19599;SDS011;9947;57.722;12.012;2023-02-28T10:00:29;42.07;;;16.27;;
19599;SDS011;9947;57.722;12.012;2023-02-28T10:05:56;43.90;;;16.67;;
19599;SDS011;9947;57.722;12.012;2023-02-28T10:08:29;40.57;;;16.00;;
19599;SDS011;9947;57.722;12.012;2023-02-28T10:11:00;45.00;;;15.87;;
19599;SDS011;9947;57.722;12.012;2023-02-28T10:13:33;45.73;;;16.77;;
19599;SDS011;9947;57.722;12.012;2023-02-28T10:16:03;35.00;;;15.90;;
19599;SDS011;9947;57.722;12.012;2023-02-28T10:18:40;46.07;;;16.73;;
19599;SDS011;9947;57.722;12.012;2023-02-28T10:21:17;45.50;;;16.13;;
19599;SDS011;9947;57.722;12.012;2023-02-28T10:23:53;47.43;;;16.20;;
19599;SDS011;9947;57.722;12.012;2023-02-28T10:26:28;39.00;;;14.40;;
19599;SDS011;9947;57.722;12.012;2023-02-28T10:28:58;37.43;;;14.63;;
19599;SDS011;9947;57.722;12.012;2023-02-28T10:31:27;38.60;;;15.10;;
19599;SDS011;9947;57.722;12.012;2023-02-28T10:33:56;36.73;;;13.53;;
19599;SDS011;9947;57.722;12.012;2023-02-28T10:36:23;32.17;;;14.13;;
19599;SDS011;9947;57.722;12.012;2023-02-28T10:38:50;37.57;;;13.50;;
19599;SDS011;9947;57.722;12.012;2023-02-28T10:41:26;39.17;;;13.83;;
19599;SDS011;9947;57.722;12.012;2023-02-28T10:44:12;27.03;;;13.00;;
19599;SDS011;9947;57.722;12.012;2023-02-28T10:46:41;33.23;;;14.63;;
19599;SDS011;9947;57.722;12.012;2023-02-28T10:49:14;31.73;;;13.90;;
19599;SDS011;9947;57.722;12.012;2023-02-28T10:51:53;31.43;;;13.27;;
19599;SDS011;9947;57.722;12.012;2023-02-28T10:54:23;27.67;;;12.67;;
19599;SDS011;9947;57.722;12.012;2023-02-28T10:59:43;28.87;;;12.67;;
19599;SDS011;9947;57.722;12.012;2023-02-28T11:02:30;32.60;;;12.53;;
19599;SDS011;9947;57.722;12.012;2023-02-28T11:05:01;29.90;;;11.90;;
19599;SDS011;9947;57.722;12.012;2023-02-28T11:07:28;32.50;;;11.50;;
19599;SDS011;9947;57.722;12.012;2023-02-28T11:09:56;25.17;;;11.27;;
19599;SDS011;9947;57.722;12.012;2023-02-28T11:12:25;27.70;;;11.77;;
19599;SDS011;9947;57.722;12.012;2023-02-28T11:14:56;23.57;;;11.00;;
19599;SDS011;9947;57.722;12.012;2023-02-28T11:17:26;24.77;;;10.57;;
19599;SDS011;9947;57.722;12.012;2023-02-28T11:19:56;23.80;;;12.13;;
19599;SDS011;9947;57.722;12.012;2023-02-28T11:22:29;24.23;;;11.07;;
19599;SDS011;9947;57.722;12.012;2023-02-28T11:25:16;24.93;;;10.27;;
19599;SDS011;9947;57.722;12.012;2023-02-28T11:27:49;25.77;;;9.83;;
19599;SDS011;9947;57.722;12.012;2023-02-28T11:30:25;27.50;;;10.53;;
19599;SDS011;9947;57.722;12.012;2023-02-28T11:32:54;26.60;;;11.97;;
19599;SDS011;9947;57.722;12.012;2023-02-28T11:35:23;35.37;;;10.93;;
19599;SDS011;9947;57.722;12.012;2023-02-28T11:37:53;23.40;;;9.83;;
19599;SDS011;9947;57.722;12.012;2023-02-28T11:40:23;21.43;;;9.00;;
19599;SDS011;9947;57.722;12.012;2023-02-28T11:43:06;22.23;;;9.27;;
19599;SDS011;9947;57.722;12.012;2023-02-28T11:45:44;22.33;;;9.37;;
19599;SDS011;9947;57.722;12.012;2023-02-28T11:48:22;19.93;;;9.73;;
19599;SDS011;9947;57.722;12.012;2023-02-28T11:50:57;22.60;;;10.00;;
19599;SDS011;9947;57.722;12.012;2023-02-28T11:56:31;31.67;;;10.77;;
19599;SDS011;9947;57.722;12.012;2023-02-28T11:59:05;27.23;;;11.13;;
19599;SDS011;9947;57.722;12.012;2023-02-28T12:01:48;26.20;;;10.83;;
19599;SDS011;9947;57.722;12.012;2023-02-28T12:04:33;34.67;;;10.67;;
19599;SDS011;9947;57.722;12.012;2023-02-28T12:07:08;34.13;;;11.33;;
19599;SDS011;9947;57.722;12.012;2023-02-28T12:09:50;28.37;;;10.77;;
19599;SDS011;9947;57.722;12.012;2023-02-28T12:12:29;24.87;;;10.70;;
19599;SDS011;9947;57.722;12.012;2023-02-28T12:15:11;28.53;;;10.47;;
19599;SDS011;9947;57.722;12.012;2023-02-28T12:18:01;24.10;;;9.73;;
19599;SDS011;9947;57.722;12.012;2023-02-28T12:20:41;24.27;;;9.00;;
19599;SDS011;9947;57.722;12.012;2023-02-28T12:23:23;29.67;;;10.10;;
19599;SDS011;9947;57.722;12.012;2023-02-28T12:26:13;23.80;;;9.63;;
19599;SDS011;9947;57.722;12.012;2023-02-28T12:28:48;26.47;;;9.77;;
19599;SDS011;9947;57.722;12.012;2023-02-28T12:31:20;23.03;;;9.70;;
19599;SDS011;9947;57.722;12.012;2023-02-28T12:34:06;23.57;;;10.10;;
19599;SDS011;9947;57.722;12.012;2023-02-28T12:36:38;32.53;;;10.70;;
19599;SDS011;9947;57.722;12.012;2023-02-28T12:39:13;23.30;;;9.80;;
19599;SDS011;9947;57.722;12.012;2023-02-28T12:41:47;34.20;;;10.53;;
19599;SDS011;9947;57.722;12.012;2023-02-28T12:44:19;31.10;;;10.60;;
19599;SDS011;9947;57.722;12.012;2023-02-28T12:46:50;26.93;;;10.43;;
19599;SDS011;9947;57.722;12.012;2023-02-28T12:49:21;24.50;;;9.80;;
19599;SDS011;9947;57.722;12.012;2023-02-28T12:51:55;33.43;;;10.53;;
19599;SDS011;9947;57.722;12.012;2023-02-28T12:54:25;23.13;;;9.80;;
19599;SDS011;9947;57.722;12.012;2023-02-28T12:57:01;27.40;;;10.43;;
19599;SDS011;9947;57.722;12.012;2023-02-28T12:59:38;20.40;;;9.93;;
19599;SDS011;9947;57.722;12.012;2023-02-28T13:02:20;26.37;;;9.43;;
19599;SDS011;9947;57.722;12.012;2023-02-28T13:05:07;21.80;;;10.63;;
19599;SDS011;9947;57.722;12.012;2023-02-28T13:07:53;30.87;;;9.43;;
19599;SDS011;9947;57.722;12.012;2023-02-28T13:10:38;26.77;;;9.00;;
19599;SDS011;9947;57.722;12.012;2023-02-28T13:13:11;29.43;;;9.13;;
19599;SDS011;9947;57.722;12.012;2023-02-28T13:18:29;26.40;;;9.00;;
19599;SDS011;9947;57.722;12.012;2023-02-28T13:20:58;31.00;;;9.30;;
19599;SDS011;9947;57.722;12.012;2023-02-28T13:23:38;30.33;;;8.93;;
19599;SDS011;9947;57.722;12.012;2023-02-28T13:26:07;35.27;;;9.47;;
19599;SDS011;9947;57.722;12.012;2023-02-28T13:28:58;54.17;;;10.20;;
19599;SDS011;9947;57.722;12.012;2023-02-28T13:31:27;31.30;;;8.83;;
19599;SDS011;9947;57.722;12.012;2023-02-28T13:34:13;32.33;;;8.27;;
19599;SDS011;9947;57.722;12.012;2023-02-28T13:36:42;30.37;;;8.83;;
19599;SDS011;9947;57.722;12.012;2023-02-28T13:42:32;30.37;;;8.40;;
19599;SDS011;9947;57.722;12.012;2023-02-28T13:45:23;31.40;;;8.37;;
19599;SDS011;9947;57.722;12.012;2023-02-28T13:47:52;32.37;;;8.07;;
19599;SDS011;9947;57.722;12.012;2023-02-28T13:50:22;36.43;;;8.83;;
19599;SDS011;9947;57.722;12.012;2023-02-28T13:55:55;28.73;;;7.90;;
19599;SDS011;9947;57.722;12.012;2023-02-28T13:58:38;19.23;;;7.00;;
19599;SDS011;9947;57.722;12.012;2023-02-28T14:04:41;19.77;;;7.20;;
19599;SDS011;9947;57.722;12.012;2023-02-28T14:07:26;23.53;;;7.20;;
19599;SDS011;9947;57.722;12.012;2023-02-28T14:09:58;28.87;;;7.53;;
19599;SDS011;9947;57.722;12.012;2023-02-28T14:15:46;16.90;;;6.43;;
19599;SDS011;9947;57.722;12.012;2023-02-28T14:18:24;27.17;;;6.63;;
19599;SDS011;9947;57.722;12.012;2023-02-28T14:20:58;14.33;;;6.07;;
19599;SDS011;9947;57.722;12.012;2023-02-28T14:23:36;16.33;;;5.80;;
19599;SDS011;9947;57.722;12.012;2023-02-28T14:26:31;19.30;;;5.90;;
19599;SDS011;9947;57.722;12.012;2023-02-28T14:29:14;17.70;;;6.27;;
19599;SDS011;9947;57.722;12.012;2023-02-28T14:31:54;18.03;;;5.83;;
19599;SDS011;9947;57.722;12.012;2023-02-28T14:37:19;18.70;;;6.20;;
19599;SDS011;9947;57.722;12.012;2023-02-28T14:39:54;18.23;;;6.03;;
19599;SDS011;9947;57.722;12.012;2023-02-28T14:42:27;20.63;;;6.30;;
19599;SDS011;9947;57.722;12.012;2023-02-28T14:44:58;19.37;;;5.53;;
19599;SDS011;9947;57.722;12.012;2023-02-28T14:47:27;19.10;;;6.13;;
19599;SDS011;9947;57.722;12.012;2023-02-28T14:49:58;17.13;;;5.80;;
19599;SDS011;9947;57.722;12.012;2023-02-28T14:52:27;13.87;;;6.23;;
19599;SDS011;9947;57.722;12.012;2023-02-28T14:54:57;18.70;;;5.30;;
19599;SDS011;9947;57.722;12.012;2023-02-28T14:57:27;16.40;;;5.50;;
19599;SDS011;9947;57.722;12.012;2023-02-28T15:00:03;20.70;;;6.10;;
19599;SDS011;9947;57.722;12.012;2023-02-28T15:02:37;20.90;;;5.43;;
19599;SDS011;9947;57.722;12.012;2023-02-28T15:05:30;25.03;;;5.23;;
19599;SDS011;9947;57.722;12.012;2023-02-28T15:08:03;17.23;;;5.00;;
19599;SDS011;9947;57.722;12.012;2023-02-28T15:10:36;20.60;;;5.43;;
19599;SDS011;9947;57.722;12.012;2023-02-28T15:13:05;16.77;;;5.47;;
19599;SDS011;9947;57.722;12.012;2023-02-28T15:15:42;24.60;;;5.30;;
19599;SDS011;9947;57.722;12.012;2023-02-28T15:18:22;20.13;;;5.70;;
19599;SDS011;9947;57.722;12.012;2023-02-28T15:20:59;19.30;;;5.10;;
19599;SDS011;9947;57.722;12.012;2023-02-28T15:23:30;19.93;;;5.77;;
19599;SDS011;9947;57.722;12.012;2023-02-28T15:25:59;18.63;;;6.47;;
19599;SDS011;9947;57.722;12.012;2023-02-28T15:28:27;20.70;;;5.23;;
19599;SDS011;9947;57.722;12.012;2023-02-28T15:30:59;19.73;;;5.50;;
19599;SDS011;9947;57.722;12.012;2023-02-28T15:33:28;12.67;;;5.70;;
19599;SDS011;9947;57.722;12.012;2023-02-28T15:36:10;13.70;;;4.83;;